メインページ
METAR-TAF:

METAR-TAF

空港 :

ダブリン空港

ダブリン, アイルランド

緯度: 53-26N, 経度: 006-15W, 海抜: 68m

現時点の気象観測

当レポートは36分前の18:30(UTC)に作成
西の風 6kt、南西から西/北西の間で変化する
気温 20°C
湿度 78%
気圧 1018 hPa
視程10km以上
高度1500ftの雲はほとんどない
高度3000ftの雲は散在している
高度6000ftの千切れ雲あり
近辺でにわか雨

METAR: EIDW 191830Z 27006KT 230V290 9999 VCSH FEW015 SCT030 BKN060 20/16 Q1018 NOSIG

時間: 20:06 (19:06 UTC)

予報

当レポートは2時間6分前の17:00(UTC)に作成
予報は19日の 18時(UTC)から 20日の 18時(UTC)まで有効
西の風 7kt
視程10km以上
高度1500ftの雲はほとんどない
高度2500ftの千切れ雲あり
19日の 23時(UTC)から 20日の 11時(UTC)まで一時的に
高度800ftの雲は散在している
高度1200ftの千切れ雲あり
確率 30% :
20日の 00時(UTC)から 20日の 09時(UTC)まで一時的に
視程: 4000m
高度700ftの千切れ雲あり
小霧雨, 靄
20日の 16時(UTC)から 20日の 18時(UTC)まで徐々に
変向風 3kt

TAF: EIDW 191700Z 1918/2018 26007KT 9999 FEW015 BKN025 TEMPO 1923/2011 SCT008 BKN012 PROB30 TEMPO 2000/2009 4000 -DZ BR BKN007 BECMG 2016/2018 VRB03KT

4,000以上の空港の気象観測と天気予報(METAR報とTAF報)

利用可能な観測所は地図上に黄色い丸と赤い丸で示す。

丸の上にカーソルを重ねると観測所名を参照できる。

次にクリックすると気象観測と天気予報を参照できる。

マップの切り替え:黒色「×」印の緑ボタンをクリックして拡大、「-」印の緑ボタンをクリックして縮小、緑色の三角印をクリックして隣りの地図に切り替え


METAR-TAF: